RJCW/WKJ METAR and TAF weather

Enter ICAO airport designator
Station Type Date Time Source
RJCW METAR 2023/09/28 09:00 UTC NOAA

RJCW 280900Z 36003KT 330V040 7000 SHRA FEW007 SCT020 FEW020CB BKN080 17/16 Q1007


Station Type Date Time Source
RJCW Decoded METAR 2023/09/28 09:00 UTC NOAA

Wakkanai Airport, Japan (RJCW) 45-24N 141-48E 11M
Sep 28, 2023 - 05:00 AM EDT / 2023.09.28 0900 UTC
Wind: from the N (360 degrees) at 3 MPH (3 KT) (direction variable):0
Visibility: 4 mile(s):0
Sky conditions: mostly cloudy
Weather: rain showers; Cumulonimbus clouds observed
Temperature: 62 F (17 C)
Dew Point: 60 F (16 C)
Relative Humidity: 93%
Pressure (altimeter): 29.74 in. Hg (1007 hPa)
ob: RJCW 280900Z 36003KT 330V040 7000 SHRA FEW007 SCT020 FEW020CB BKN080 17/16 Q1007
cycle: 9

Station Type Date Time Source
RJCW TAF UTC NOAA

Error!

Example: see airport list